^^
Grace C. Lehan Memorial Weather Station Historical Data
Daily Summary for February 2, 2021 Units:  Metric    English   Both
Daily Weekly Monthly Yearly
  High: Low: Average:
Temperature: 14.6 °C 6 °C 9.9 °C
Dew Point: 5.6 °C 1.7 °C 3.7 °C
Humidity: 88% 47.1% 66%
Wind Speed: 5.8km/h 0km/h 0.5km/h
Wind Gust: 20.9km/h - -
Wind- - West
Pressure: 1021.9 hPa 1018.5 hPa -
Precipitation: 0 mm    
 
 
Tabular Data for February 2, 2021
Time Temperature Dew Point Pressure Wind Wind Speed Wind Gust Humidity Rainfall Rate (Hourly) solar
00:00 6.3 °C 1.8 °C 1020.5 hPa Calm     73% 0 mm 0 W/m2
00:09 6.3 °C 2.1 °C 1020.9 hPa Calm     74.4% 0 mm 0 W/m2
00:14 6.3 °C 2.2 °C 1020.9 hPa Calm     75.5% 0 mm 0 W/m2
00:19 6.2 °C 2.4 °C 1020.9 hPa Calm     76.6% 0 mm 0 W/m2
00:24 6.1 °C 2.6 °C 1020.9 hPa Calm     77.8% 0 mm 0 W/m2
00:29 6.1 °C 2.7 °C 1020.9 hPa Calm     78.6% 0 mm 0 W/m2
00:34 6.1 °C 2.7 °C 1020.9 hPa Calm     79.1% 0 mm 0 W/m2
00:39 6 °C 2.8 °C 1020.9 hPa Calm     80% 0 mm 0 W/m2
00:44 6 °C 2.8 °C 1020.9 hPa Calm     80% 0 mm 0 W/m2
00:49 6 °C 2.8 °C 1020.9 hPa Calm     79.8% 0 mm 0 W/m2
00:54 6.1 °C 2.9 °C 1020.9 hPa Calm     80.3% 0 mm 0 W/m2
00:59 6.1 °C 3.1 °C 1020.9 hPa Calm     81% 0 mm 0 W/m2
01:04 6.2 °C 3.2 °C 1021.2 hPa Calm     81% 0 mm 0 W/m2
01:09 6.3 °C 3.2 °C 1020.9 hPa Calm     81% 0 mm 0 W/m2
01:14 6.3 °C 3.3 °C 1020.9 hPa Calm     81% 0 mm 0 W/m2
01:19 6.3 °C 3.2 °C 1020.9 hPa Calm     80.3% 0 mm 0 W/m2
01:24 6.3 °C 3.3 °C 1020.9 hPa Calm     81% 0 mm 0 W/m2
01:29 6.3 °C 3.3 °C 1020.9 hPa Calm     81% 0 mm 0 W/m2
01:34 6.3 °C 3.2 °C 1020.9 hPa Calm     80.5% 0 mm 0 W/m2
01:39 6.4 °C 3.4 °C 1020.9 hPa Calm     80.9% 0 mm 0 W/m2
01:44 6.4 °C 3.4 °C 1020.9 hPa Calm     81% 0 mm 0 W/m2
01:49 6.5 °C 3.4 °C 1020.9 hPa Calm     81% 0 mm 0 W/m2
01:54 6.5 °C 3.5 °C 1020.9 hPa Calm     81% 0 mm 0 W/m2
01:59 6.5 °C 3.5 °C 1020.9 hPa Calm     81% 0 mm 0 W/m2
02:04 6.5 °C 3.5 °C 1020.9 hPa Calm     81% 0 mm 0 W/m2
02:09 6.6 °C 3.5 °C 1020.9 hPa Calm     81% 0 mm 0 W/m2
02:14 6.6 °C 3.6 °C 1020.9 hPa Calm     81.1% 0 mm 0 W/m2
02:19 6.6 °C 3.7 °C 1020.9 hPa Calm     82% 0 mm 0 W/m2
02:24 6.6 °C 3.7 °C 1020.9 hPa Calm     82% 0 mm 0 W/m2
02:29 6.6 °C 3.7 °C 1020.9 hPa Calm     82.1% 0 mm 0 W/m2
02:34 6.6 °C 3.9 °C 1020.9 hPa Calm     83% 0 mm 0 W/m2
02:39 6.6 °C 3.9 °C 1020.9 hPa Calm     83% 0 mm 0 W/m2
02:44 6.6 °C 3.9 °C 1020.9 hPa Calm     83% 0 mm 0 W/m2
02:49 6.6 °C 3.9 °C 1020.9 hPa Calm     83% 0 mm 0 W/m2
02:54 6.6 °C 3.9 °C 1020.9 hPa Calm     83% 0 mm 0 W/m2
02:59 6.6 °C 3.9 °C 1020.9 hPa Calm     83% 0 mm 0 W/m2
03:04 6.6 °C 3.9 °C 1020.9 hPa Calm     83% 0 mm 0 W/m2
03:09 6.6 °C 3.9 °C 1020.9 hPa Calm     83% 0 mm 0 W/m2
03:14 6.6 °C 3.9 °C 1020.9 hPa Calm     83% 0 mm 0 W/m2
03:19 6.6 °C 3.9 °C 1020.9 hPa Calm     83% 0 mm 0 W/m2
03:24 6.6 °C 3.9 °C 1020.9 hPa Calm     83.3% 0 mm 0 W/m2
03:29 6.6 °C 4.1 °C 1020.9 hPa Calm     84% 0 mm 0 W/m2
03:34 6.6 °C 4.1 °C 1020.9 hPa Calm     84% 0 mm 0 W/m2
03:39 6.5 °C 4 °C 1020.9 hPa Calm     84% 0 mm 0 W/m2
03:44 6.6 °C 4.1 °C 1020.9 hPa Calm     84% 0 mm 0 W/m2
03:49 6.6 °C 4.1 °C 1020.9 hPa Calm     84% 0 mm 0 W/m2
03:54 6.5 °C 3.9 °C 1020.9 hPa Calm     83.2% 0 mm 0 W/m2
03:59 6.5 °C 3.8 °C 1020.9 hPa Calm     83% 0 mm 0 W/m2
04:00 6.5 °C 3.8 °C 1020.9 hPa Calm     83% 0 mm 0 W/m2
04:09 6.6 °C 3.8 °C 1020.9 hPa Calm     82.4% 0 mm 0 W/m2
04:14 6.6 °C 3.7 °C 1020.9 hPa Calm     82% 0 mm 0 W/m2
04:19 6.7 °C 3.8 °C 1020.9 hPa Calm     82% 0 mm 0 W/m2
04:24 6.7 °C 3.9 °C 1020.9 hPa Calm     82.4% 0 mm 0 W/m2
04:29 6.7 °C 4.1 °C 1020.9 hPa Calm     83% 0 mm 0 W/m2
04:34 6.7 °C 4.1 °C 1020.9 hPa Calm     83% 0 mm 0 W/m2
04:39 6.8 °C 4.3 °C 1020.9 hPa Calm     84% 0 mm 0 W/m2
04:44 6.7 °C 4.2 °C 1020.9 hPa Calm     83.8% 0 mm 0 W/m2
04:49 6.7 °C 4 °C 1020.9 hPa Calm     83% 0 mm 0 W/m2
04:54 6.7 °C 4 °C 1020.9 hPa Calm     83% 0 mm 0 W/m2
04:59 6.7 °C 4 °C 1020.5 hPa Calm     83% 0 mm 0 W/m2
05:04 6.7 °C 4 °C 1020.5 hPa Calm     83% 0 mm 0 W/m2
05:09 6.7 °C 4.1 °C 1020.5 hPa Calm     83.6% 0 mm 0 W/m2
05:14 6.7 °C 4.2 °C 1020.5 hPa Calm     84% 0 mm 0 W/m2
05:19 6.7 °C 4.2 °C 1020.9 hPa Calm     84% 0 mm 0 W/m2
05:24 6.7 °C 4.3 °C 1020.9 hPa Calm     84.4% 0 mm 0 W/m2
05:30 6.7 °C 4.4 °C 1020.9 hPa Calm     85% 0 mm 0 W/m2
06:00 6.9 °C 4.6 °C 1020.9 hPa Calm     85% 0 mm 0 W/m2
06:30 6.9 °C 4.9 °C 1020.9 hPa Calm     87% 0 mm 0 W/m2
07:00 6.9 °C 4.7 °C 1020.9 hPa Calm     86% 0 mm 0 W/m2
07:30 6.7 °C 4.3 °C 1021.2 hPa Calm     85% 0 mm 0 W/m2
08:04 6.3 °C 4.3 °C 1021.2 hPa Calm     87% 0 mm 28 W/m2
08:09 6.3 °C 4.3 °C 1021.6 hPa Calm     87% 0 mm 62 W/m2
08:14 6.3 °C 4.4 °C 1021.6 hPa Calm     87.3% 0 mm 83 W/m2
08:19 6.4 °C 4.6 °C 1021.6 hPa Calm     88% 0 mm 58 W/m2
08:24 6.6 °C 4.7 °C 1021.6 hPa Calm     88% 0 mm 62 W/m2
08:29 6.7 °C 4.8 °C 1021.6 hPa Calm     88% 0 mm 47 W/m2
08:34 6.8 °C 4.9 °C 1021.6 hPa Calm     88% 0 mm 54 W/m2
08:39 6.9 °C 5 °C 1021.6 hPa Calm     87.8% 0 mm 69 W/m2
08:44 6.9 °C 4.9 °C 1021.6 hPa Calm     87% 0 mm 107 W/m2
08:49 7.1 °C 5 °C 1021.6 hPa Calm     86.9% 0 mm 134 W/m2
08:54 7.2 °C 5.1 °C 1021.6 hPa Calm     86% 0 mm 213 W/m2
08:59 7.4 °C 5.1 °C 1021.6 hPa Calm     85.1% 0 mm 54 W/m2
09:04 7.7 °C 5.1 °C 1021.6 hPa Calm     83.4% 0 mm 51 W/m2
09:09 7.9 °C 5.1 °C 1021.6 hPa Calm     82.2% 0 mm 60 W/m2
09:14 8.1 °C 4.9 °C 1021.6 hPa Calm     80.5% 0 mm 72 W/m2
09:19 8.2 °C 5 °C 1021.6 hPa Calm     80% 0 mm 79 W/m2
09:24 8.4 °C 5.1 °C 1021.6 hPa Calm     79.4% 0 mm 84 W/m2
09:29 8.6 °C 5 °C 1021.9 hPa Calm     78.5% 0 mm 91 W/m2
09:34 8.7 °C 5.1 °C 1021.9 hPa Calm     78.1% 0 mm 98 W/m2
09:39 8.9 °C 5.4 °C 1021.6 hPa Calm     78.9% 0 mm 104 W/m2
09:44 9 °C 5.4 °C 1021.6 hPa Calm     78.3% 0 mm 125 W/m2
09:49 9.2 °C 5.5 °C 1021.6 hPa Calm     77.7% 0 mm 139 W/m2
09:54 9.4 °C 5.5 °C 1021.6 hPa Calm     76.7% 0 mm 137 W/m2
09:59 9.6 °C 5.4 °C 1021.6 hPa Calm     75.5% 0 mm 86 W/m2
10:04 9.7 °C 5.6 °C 1021.6 hPa Calm     75% 0 mm 100 W/m2
10:09 9.9 °C 5.2 °C 1021.6 hPa Calm   3.2 km/h 72.8% 0 mm 376 W/m2
10:14 10.1 °C 4.9 °C 1021.6 hPa Calm   3.2 km/h 70.4% 0 mm 415 W/m2
10:19 10.4 °C 5.1 °C 1021.6 hPa NW 0.2 km/h 3.2 km/h 69% 0 mm 360 W/m2
10:24 10.9 °C 4.6 °C 1021.6 hPa NW 0.2 km/h 4.8 km/h 65.1% 0 mm 241 W/m2
10:29 11.2 °C 4.3 °C 1021.6 hPa WSW 0.8 km/h 8 km/h 62.6% 0 mm 213 W/m2
10:34 11.4 °C 4.1 °C 1021.6 hPa SW 0.3 km/h 8 km/h 60.6% 0 mm 482 W/m2
10:39 11.7 °C 4.4 °C 1021.6 hPa WSW 1.1 km/h 8 km/h 60.7% 0 mm 482 W/m2
10:44 12.2 °C 4.6 °C 1021.6 hPa WSW 0.8 km/h 8 km/h 59.6% 0 mm 413 W/m2
10:49 12.6 °C 4.8 °C 1021.6 hPa WSW 0.2 km/h 8 km/h 58.8% 0 mm 401 W/m2
10:54 13 °C 4.4 °C 1021.6 hPa WSW 1 km/h 8 km/h 56.1% 0 mm 341 W/m2
10:59 13.2 °C 4.4 °C 1021.6 hPa Calm   8 km/h 55% 0 mm 308 W/m2
11:04 13.4 °C 4.2 °C 1021.6 hPa WSW 0.3 km/h 8 km/h 53.4% 0 mm 309 W/m2
11:09 13.6 °C 4 °C 1021.6 hPa WSW 0.6 km/h 4.8 km/h 52.3% 0 mm 357 W/m2
11:14 13.7 °C 3.9 °C 1021.2 hPa WSW 1.8 km/h 11.3 km/h 51.6% 0 mm 353 W/m2
11:19 13.8 °C 4.1 °C 1021.2 hPa WSW 0.5 km/h 11.3 km/h 51.7% 0 mm 341 W/m2
11:24 13.9 °C 3.9 °C 1021.2 hPa WSW 0.6 km/h 11.3 km/h 50.8% 0 mm 301 W/m2
11:29 13.9 °C 3.8 °C 1021.2 hPa WSW 0.5 km/h 11.3 km/h 50.5% 0 mm 272 W/m2
11:34 13.8 °C 3.8 °C 1021.2 hPa WSW 0.3 km/h 11.3 km/h 50.7% 0 mm 262 W/m2
11:39 13.8 °C 3.8 °C 1020.9 hPa SW 1.8 km/h 8 km/h 50.8% 0 mm 258 W/m2
11:44 13.8 °C 3.8 °C 1020.9 hPa WSW 1.3 km/h 9.7 km/h 50.9% 0 mm 253 W/m2
11:49 13.9 °C 3.8 °C 1020.9 hPa WSW 1.1 km/h 11.3 km/h 50.5% 0 mm 251 W/m2
11:54 13.9 °C 3.9 °C 1020.9 hPa SW 3.9 km/h 17.7 km/h 50.7% 0 mm 272 W/m2
11:59 13.9 °C 3.4 °C 1020.9 hPa SW 1.9 km/h 17.7 km/h 49% 0 mm 301 W/m2
12:09 14 °C 3.8 °C 1020.5 hPa WSW 1.6 km/h 14.5 km/h 50.3% 0 mm 221 W/m2
12:14 13.9 °C 3.4 °C 1020.5 hPa West 1.1 km/h 14.5 km/h 48.9% 0 mm 193 W/m2
12:19 13.8 °C 3.4 °C 1020.5 hPa WSW 1.6 km/h 14.5 km/h 49.4% 0 mm 192 W/m2
12:24 13.8 °C 3.6 °C 1020.2 hPa WSW 0.2 km/h 14.5 km/h 50.2% 0 mm 190 W/m2
12:29 13.8 °C 3.8 °C 1020.2 hPa WSW 0.5 km/h 14.5 km/h 50.9% 0 mm 171 W/m2
12:34 13.8 °C 3.3 °C 1020.2 hPa SW 3.4 km/h 16.1 km/h 49.1% 0 mm 197 W/m2
12:39 13.7 °C 3.1 °C 1020.2 hPa West 2.1 km/h 16.1 km/h 48.7% 0 mm 220 W/m2
12:44 13.6 °C 3.1 °C 1019.9 hPa West 1.1 km/h 16.1 km/h 48.9% 0 mm 220 W/m2
12:49 13.6 °C 3.4 °C 1019.9 hPa West 1.3 km/h 16.1 km/h 50.2% 0 mm 178 W/m2
12:54 13.5 °C 3.4 °C 1019.9 hPa WNW 1.3 km/h 16.1 km/h 50.5% 0 mm 181 W/m2
12:59 13.5 °C 3.2 °C 1019.9 hPa WSW 3.2 km/h 16.1 km/h 49.8% 0 mm 151 W/m2
13:04 13.4 °C 3.1 °C 1019.9 hPa WSW 2.9 km/h 16.1 km/h 49.8% 0 mm 285 W/m2
13:09 13.4 °C 3.3 °C 1019.5 hPa WSW 3.2 km/h 17.7 km/h 50.4% 0 mm 204 W/m2
13:14 13.4 °C 3.2 °C 1019.5 hPa West 2.6 km/h 17.7 km/h 50% 0 mm 214 W/m2
13:19 13.4 °C 3.6 °C 1019.5 hPa West 2.3 km/h 17.7 km/h 51.4% 0 mm 243 W/m2
13:24 13.6 °C 3.8 °C 1019.5 hPa West 1.4 km/h 17.7 km/h 51.7% 0 mm 420 W/m2
13:29 13.8 °C 3.8 °C 1019.5 hPa SSW 1.4 km/h 17.7 km/h 50.6% 0 mm 420 W/m2
13:34 14.1 °C 3.4 °C 1019.2 hPa WNW 2.6 km/h 17.7 km/h 48.6% 0 mm 264 W/m2
13:39 14.2 °C 3.6 °C 1019.2 hPa WSW 1.4 km/h 16.1 km/h 48.9% 0 mm 209 W/m2
13:44 14.2 °C 3.5 °C 1019.2 hPa WSW 0.5 km/h 16.1 km/h 48.5% 0 mm 265 W/m2
13:49 14.3 °C 3.9 °C 1019.2 hPa WSW 1 km/h 16.1 km/h 49.5% 0 mm 327 W/m2
13:54 14.4 °C 3.6 °C 1019.2 hPa WSW 2.3 km/h 16.1 km/h 48.3% 0 mm 352 W/m2
13:59 14.6 °C 3.4 °C 1018.8 hPa WSW 1.6 km/h 16.1 km/h 47.2% 0 mm 306 W/m2
14:03 14.5 °C 3.4 °C 1018.8 hPa SW 1 km/h 16.1 km/h 47.1% 0 mm 202 W/m2
14:09 14.4 °C 3.6 °C 1018.8 hPa West 1.6 km/h 16.1 km/h 48.2% 0 mm 214 W/m2
14:14 14.3 °C 3.4 °C 1018.8 hPa WSW 0.8 km/h 16.1 km/h 48% 0 mm 214 W/m2
14:19 14.2 °C 3.6 °C 1018.8 hPa West 1.6 km/h 16.1 km/h 48.6% 0 mm 223 W/m2
14:24 14.2 °C 3.6 °C 1018.8 hPa West 0.8 km/h 16.1 km/h 48.9% 0 mm 301 W/m2
14:29 14.3 °C 3.8 °C 1018.8 hPa West 1 km/h 16.1 km/h 49.4% 0 mm 192 W/m2
14:34 14.2 °C 3.4 °C 1018.8 hPa WSW 0.6 km/h 16.1 km/h 48.1% 0 mm 172 W/m2
14:39 14.1 °C 3.3 °C 1018.8 hPa SW 0.6 km/h 8 km/h 48.2% 0 mm 195 W/m2
14:44 13.9 °C 3.5 °C 1018.8 hPa SW 0.6 km/h 8 km/h 49.2% 0 mm 195 W/m2
14:49 13.8 °C 3.4 °C 1018.8 hPa WSW 1 km/h 16.1 km/h 49.4% 0 mm 151 W/m2
14:54 13.7 °C 3.3 °C 1018.8 hPa WSW 0.6 km/h 16.1 km/h 49.3% 0 mm 172 W/m2
14:59 13.7 °C 3.3 °C 1018.5 hPa WSW 1.1 km/h 16.1 km/h 49.7% 0 mm 186 W/m2
15:04 13.6 °C 3.2 °C 1018.5 hPa WSW 0.5 km/h 16.1 km/h 49.3% 0 mm 167 W/m2
15:09 13.6 °C 3.3 °C 1018.5 hPa WSW 0.6 km/h 4.8 km/h 49.9% 0 mm 193 W/m2
15:14 13.6 °C 3.6 °C 1018.5 hPa West 1.1 km/h 6.4 km/h 50.8% 0 mm 148 W/m2
15:19 13.6 °C 3.4 °C 1018.5 hPa WSW 2.1 km/h 6.4 km/h 50% 0 mm 130 W/m2
15:24 13.5 °C 3.6 °C 1018.5 hPa West 0.2 km/h 6.4 km/h 50.8% 0 mm 132 W/m2
15:29 13.5 °C 3.9 °C 1018.5 hPa West 0.3 km/h 6.4 km/h 52.3% 0 mm 130 W/m2
15:34 13.4 °C 4.1 °C 1018.5 hPa Calm   6.4 km/h 53% 0 mm 139 W/m2
15:39 13.4 °C 4.1 °C 1018.5 hPa WNW 1.3 km/h 8 km/h 53.2% 0 mm 141 W/m2
15:44 13.4 °C 4.3 °C 1018.5 hPa WNW 0.2 km/h 8 km/h 54% 0 mm 120 W/m2
15:49 13.3 °C 4.1 °C 1018.5 hPa WSW 0.6 km/h 8 km/h 53.5% 0 mm 97 W/m2
15:54 13.3 °C 4 °C 1018.5 hPa WSW 0.3 km/h 8 km/h 53.4% 0 mm 100 W/m2
15:59 13.2 °C 3.9 °C 1018.5 hPa WSW 1.6 km/h 14.5 km/h 53.1% 0 mm 100 W/m2
16:00 13.2 °C 3.8 °C 1018.5 hPa Calm   14.5 km/h 53% 0 mm 97 W/m2
16:09 13.1 °C 3.7 °C 1018.8 hPa SW 0.5 km/h 4.8 km/h 52.8% 0 mm 83 W/m2
16:14 13 °C 4.2 °C 1018.5 hPa Calm   4.8 km/h 55% 0 mm 91 W/m2
16:19 13 °C 4.2 °C 1018.5 hPa Calm   4.8 km/h 54.9% 0 mm 74 W/m2
16:24 12.9 °C 4.1 °C 1018.5 hPa Calm   4.8 km/h 54.9% 0 mm 83 W/m2
16:29 12.9 °C 4.2 °C 1018.5 hPa Calm   4.8 km/h 55.2% 0 mm 72 W/m2
16:34 12.9 °C 4.1 °C 1018.5 hPa SW 0.3 km/h 4.8 km/h 55% 0 mm 62 W/m2
16:39 12.8 °C 3.9 °C 1018.5 hPa West 0.5 km/h 6.4 km/h 54.7% 0 mm 53 W/m2
16:44 12.7 °C 3.8 °C 1018.5 hPa West 0.3 km/h 6.4 km/h 54.6% 0 mm 53 W/m2
16:49 12.7 °C 3.9 °C 1018.5 hPa Calm   6.4 km/h 55% 0 mm 44 W/m2
16:54 12.6 °C 3.7 °C 1018.5 hPa Calm   6.4 km/h 54.6% 0 mm 30 W/m2
16:59 12.6 °C 4.1 °C 1018.5 hPa West 0.5 km/h 6.4 km/h 56.3% 0 mm 25 W/m2
17:04 12.4 °C 3.8 °C 1018.5 hPa Calm   6.4 km/h 55.7% 0 mm 18 W/m2
17:09 12.4 °C 3.9 °C 1018.5 hPa Calm     56% 0 mm 12 W/m2
17:14 12.3 °C 3.8 °C 1018.5 hPa Calm   1.6 km/h 56% 0 mm 12 W/m2
17:19 12.2 °C 3.9 °C 1018.5 hPa Calm   1.6 km/h 56.6% 0 mm 16 W/m2
17:24 12.2 °C 3.9 °C 1018.5 hPa Calm   1.6 km/h 57% 0 mm 16 W/m2
17:29 12.1 °C 3.7 °C 1018.5 hPa West 0.2 km/h 3.2 km/h 56.7% 0 mm 9 W/m2
17:34 12 °C 3.6 °C 1018.5 hPa West 0.3 km/h 4.8 km/h 56.4% 0 mm 7 W/m2
17:39 11.9 °C 3.7 °C 1018.5 hPa Calm   4.8 km/h 57% 0 mm 0 W/m2
17:44 11.8 °C 3.6 °C 1018.5 hPa Calm   4.8 km/h 57% 0 mm 0 W/m2
17:49 11.8 °C 3.6 °C 1018.5 hPa West 0.2 km/h 4.8 km/h 57% 0 mm 0 W/m2
17:54 11.7 °C 3.4 °C 1018.5 hPa West 0.2 km/h 4.8 km/h 56.8% 0 mm 0 W/m2
17:59 11.6 °C 3.2 °C 1018.5 hPa Calm   4.8 km/h 56.4% 0 mm 0 W/m2
18:04 11.6 °C 3.2 °C 1018.5 hPa Calm   4.8 km/h 56.6% 0 mm 0 W/m2
18:09 11.5 °C 3.3 °C 1018.5 hPa Calm     57% 0 mm 0 W/m2
18:14 11.4 °C 3.2 °C 1018.8 hPa Calm     57% 0 mm 0 W/m2
18:19 11.4 °C 3.2 °C 1018.8 hPa Calm     57% 0 mm 0 W/m2
18:24 11.3 °C 3.3 °C 1018.8 hPa Calm     57.9% 0 mm 0 W/m2
18:29 11.2 °C 3.3 °C 1018.8 hPa Calm     58% 0 mm 0 W/m2
18:34 11.2 °C 3.2 °C 1018.8 hPa Calm     58% 0 mm 0 W/m2
18:39 11.1 °C 3.4 °C 1018.8 hPa Calm   1.6 km/h 58.9% 0 mm 0 W/m2
18:44 11.1 °C 3.3 °C 1018.8 hPa Calm   1.6 km/h 59% 0 mm 0 W/m2
18:49 11 °C 3.3 °C 1018.8 hPa Calm   1.6 km/h 59% 0 mm 0 W/m2
18:54 10.9 °C 3.4 °C 1018.8 hPa Calm   8 km/h 59.7% 0 mm 0 W/m2
18:59 10.8 °C 3.2 °C 1018.8 hPa WSW 0.2 km/h 8 km/h 59% 0 mm 0 W/m2
19:04 10.8 °C 3.1 °C 1018.8 hPa WSW 0.2 km/h 8 km/h 59.1% 0 mm 0 W/m2
19:09 10.7 °C 3.3 °C 1018.8 hPa Calm   1.6 km/h 60% 0 mm 0 W/m2
19:14 10.7 °C 3.2 °C 1018.8 hPa Calm   1.6 km/h 60% 0 mm 0 W/m2
19:19 10.6 °C 3.2 °C 1019.2 hPa Calm   1.6 km/h 60% 0 mm 0 W/m2
19:24 10.6 °C 3.2 °C 1018.8 hPa Calm   1.6 km/h 60.5% 0 mm 0 W/m2
19:29 10.5 °C 3.3 °C 1019.2 hPa Calm   1.6 km/h 61% 0 mm 0 W/m2
19:34 10.4 °C 3.2 °C 1019.2 hPa Calm   1.6 km/h 61% 0 mm 0 W/m2
19:39 10.4 °C 3.2 °C 1019.2 hPa Calm     61% 0 mm 0 W/m2
19:44 10.3 °C 3.1 °C 1019.2 hPa Calm     61% 0 mm 0 W/m2
19:49 10.3 °C 3.3 °C 1019.2 hPa Calm   1.6 km/h 61.9% 0 mm 0 W/m2
19:54 10.2 °C 3.3 °C 1019.2 hPa WSW 0.2 km/h 4.8 km/h 62.3% 0 mm 0 W/m2
19:59 10.2 °C 3.3 °C 1019.2 hPa Calm   4.8 km/h 62.1% 0 mm 0 W/m2
20:00 10.2 °C 3.2 °C 1019.2 hPa Calm   4.8 km/h 62% 0 mm 0 W/m2
20:09 10.1 °C 3.4 °C 1019.2 hPa WSW 0.6 km/h 4.8 km/h 63% 0 mm 0 W/m2
20:14 10.1 °C 3.3 °C 1019.2 hPa WSW 0.8 km/h 8 km/h 62.8% 0 mm 0 W/m2
20:19 10.1 °C 3.4 °C 1019.2 hPa West 0.8 km/h 11.3 km/h 63.2% 0 mm 0 W/m2
20:24 10.1 °C 3.3 °C 1019.2 hPa West 0.2 km/h 11.3 km/h 63% 0 mm 0 W/m2
20:29 10.1 °C 3.4 °C 1019.2 hPa West 0.3 km/h 11.3 km/h 63.2% 0 mm 0 W/m2
20:34 10.1 °C 3.5 °C 1019.2 hPa West 0.6 km/h 11.3 km/h 63.7% 0 mm 0 W/m2
20:39 10.1 °C 3.4 °C 1019.5 hPa WSW 0.6 km/h 9.7 km/h 63.5% 0 mm 0 W/m2
20:44 10.1 °C 3.5 °C 1019.5 hPa WSW 0.3 km/h 9.7 km/h 63.8% 0 mm 0 W/m2
20:49 10.1 °C 3.6 °C 1019.5 hPa Calm   9.7 km/h 64.3% 0 mm 0 W/m2
20:54 10.1 °C 3.7 °C 1019.5 hPa WSW 0.3 km/h 9.7 km/h 64.8% 0 mm 0 W/m2
20:59 10 °C 3.6 °C 1019.5 hPa Calm   9.7 km/h 64.5% 0 mm 0 W/m2
21:04 10 °C 3.6 °C 1019.5 hPa Calm   9.7 km/h 64.4% 0 mm 0 W/m2
21:09 9.9 °C 3.7 °C 1019.5 hPa WSW 0.2 km/h 4.8 km/h 65% 0 mm 0 W/m2
21:14 9.9 °C 3.6 °C 1019.5 hPa WSW 0.6 km/h 6.4 km/h 64.8% 0 mm 0 W/m2
21:19 9.9 °C 3.7 °C 1019.5 hPa West 1.1 km/h 9.7 km/h 65% 0 mm 0 W/m2
21:24 9.9 °C 3.7 °C 1019.5 hPa WNW 1.4 km/h 9.7 km/h 65.4% 0 mm 0 W/m2
21:29 9.8 °C 3.6 °C 1019.5 hPa West 0.5 km/h 9.7 km/h 65.1% 0 mm 0 W/m2
21:34 9.8 °C 3.5 °C 1019.9 hPa West 0.3 km/h 9.7 km/h 65% 0 mm 0 W/m2
21:39 9.7 °C 3.5 °C 1019.9 hPa West 0.2 km/h 8 km/h 65.2% 0 mm 0 W/m2
21:44 9.7 °C 3.5 °C 1019.9 hPa West 0.2 km/h 8 km/h 65.5% 0 mm 0 W/m2
21:49 9.6 °C 3.4 °C 1019.9 hPa West 0.5 km/h 8 km/h 65.6% 0 mm 0 W/m2
21:54 9.5 °C 3.4 °C 1020.2 hPa WNW 0.6 km/h 8 km/h 66% 0 mm 0 W/m2
21:59 9.4 °C 3.4 °C 1020.2 hPa WNW 0.5 km/h 8 km/h 66% 0 mm 0 W/m2
22:04 9.4 °C 3.4 °C 1020.2 hPa Calm   8 km/h 66% 0 mm 0 W/m2
22:09 9.3 °C 3.3 °C 1020.2 hPa Calm     66.1% 0 mm 0 W/m2
22:14 9.3 °C 3.5 °C 1020.2 hPa Calm     67% 0 mm 0 W/m2
22:19 9.3 °C 3.4 °C 1020.2 hPa NW 1.9 km/h 9.7 km/h 67% 0 mm 0 W/m2
22:24 9.2 °C 3.1 °C 1020.5 hPa NW 5.5 km/h 20.9 km/h 65.8% 0 mm 0 W/m2
22:29 9.1 °C 2.7 °C 1020.5 hPa NW 5.8 km/h 20.9 km/h 64% 0 mm 0 W/m2
22:34 9.1 °C 2.6 °C 1020.5 hPa WNW 2.3 km/h 20.9 km/h 64% 0 mm 0 W/m2
22:39 9 °C 2.6 °C 1020.5 hPa NW 1.4 km/h 9.7 km/h 64% 0 mm 0 W/m2
22:44 8.9 °C 2.5 °C 1020.5 hPa NW 0.2 km/h 9.7 km/h 64% 0 mm 0 W/m2
22:49 8.8 °C 2.4 °C 1020.5 hPa Calm   9.7 km/h 64% 0 mm 0 W/m2
22:54 8.8 °C 2.4 °C 1020.5 hPa Calm   9.7 km/h 64% 0 mm 0 W/m2
22:59 8.7 °C 2.3 °C 1020.2 hPa Calm   9.7 km/h 64% 0 mm 0 W/m2
23:04 8.7 °C 2.4 °C 1020.5 hPa Calm   9.7 km/h 64.8% 0 mm 0 W/m2
23:09 8.6 °C 2.6 °C 1020.5 hPa Calm     66.2% 0 mm 0 W/m2
23:14 8.4 °C 2.5 °C 1020.5 hPa Calm     66.1% 0 mm 0 W/m2
23:19 8.3 °C 2.3 °C 1020.5 hPa Calm     65.8% 0 mm 0 W/m2
23:24 8.2 °C 2.1 °C 1020.2 hPa Calm     65% 0 mm 0 W/m2
23:29 8.2 °C 2.1 °C 1020.2 hPa Calm     65.5% 0 mm 0 W/m2
23:34 8.1 °C 2.1 °C 1020.2 hPa Calm     66% 0 mm 0 W/m2
23:39 7.9 °C 2 °C 1020.2 hPa Calm     66% 0 mm 0 W/m2
23:44 7.8 °C 1.9 °C 1020.2 hPa Calm     66.3% 0 mm 0 W/m2
23:49 7.7 °C 2 °C 1020.5 hPa Calm     67% 0 mm 0 W/m2
23:54 7.6 °C 1.9 °C 1020.2 hPa Calm     67% 0 mm 0 W/m2
23:59 7.4 °C 1.7 °C 1020.5 hPa Calm     66.6% 0 mm 0 W/m2
Hartford County Weather
Compliments of Weather Underground - 2 mb